EGPFEGPL

Guest
Details From EGPF - Glasgow
To EGPL - Benbecula
Flight Number -
Tags generated
Created
Modified
Stats Distance 142 nm / 263 km
Max Altitude 18,600 ft / 5,669 m
Waypoints 7
Social Downloads 18
Likes 0
Share

Download

Looking for another format? Having issues loading an existing format? Contact us
Advertisement - Login to hide

Notes

Basic altitude profile: - Ascent Rate: 2500ft/min - Ascent Speed: 250kts - Cruise Altitude: 35000ft - Cruise Speed: 420kts - Descent Rate: 1500ft/min - Descent Speed: 250kts Options: - Use NATs: yes - Use PACOTS: yes - Use low airways: yes - Use high airways: no

Route

EGPF GOW N573D BRUCE W958D BEN EGPL

ID Type Via Altitude (ft/m) Position (lat/lon) Dist (leg/tot) Name
O EGPF APT - 0 / 0 55.87173 / -4.43365 - / 0 nm Glasgow
GOW VOR - 100 / 30 55.87050 / -4.44573 0 / 0 nm GLASGOW VOR-DME
CLYDE FIX N573D (AWY-LO) 5,500 / 1,676 55.96487 / -4.79247 12 / 13 nm
FYNER FIX N573D (AWY-LO) 9,000 / 2,743 56.05111 / -5.11404 11 / 25 nm
BRUCE FIX N573D (AWY-LO) 18,600 / 5,669 56.23639 / -5.84111 26 / 52 nm
BEN VOR W958D (AWY-LO) 7,500 / 2,286 57.47794 / -7.36530 89 / 141 nm BENBECULA VOR-DME
O EGPL APT - 0 / 0 57.48117 / -7.36300 0 / 142 nm Benbecula

Altitude Profile

Advertisement - Login to hide

EGPF

Details ICAO EGPF (GLA)
Name Glasgow
Region United Kingdom
Timezone Europe/London (UTC+1.0)
Stats Elevation 26 ft / 8 m (AMSL)
Location 55.871700° -4.433700°
Runways 1
Magnetic Variation 2.149° W

METAR

EGPF 070720Z AUTO 26005KT 9999 NCD 06/03 Q1013

Decode

TAF

TAF EGPF 070455Z 0706/0806 26007KT 9999 FEW020 SCT040 PROB30 TEMPO 0710/0717 7000 SHRA PROB30 TEMPO 0802/0806 5000 BR BECMG 0804/0806 08010KT

Decode

Departure Runways

ID Width Length Bearing (true/mag) Surface Threshold Overrun Markings Lighting
05 148 ft / 45 m 8,699 ft / 2,651 m 46.34° / 48.48° ASPHALT 0 ft / 0 m 489 ft / 149 m PREC-APP CENTERLINE EDGE THRESHOLD MALSF
23 148 ft / 45 m 8,699 ft / 2,651 m 226.36° / 228.51° ASPHALT 974 ft / 297 m 0 ft / 0 m PREC-APP CENTERLINE EDGE THRESHOLD MALSF

EGPL

Details ICAO EGPL (BEB)
Name Benbecula
Region United Kingdom
Timezone Europe/London (UTC+1.0)
Stats Elevation 19 ft / 6 m (AMSL)
Location 57.480600° -7.363890°
Runways 2
Magnetic Variation 3.703° W

METAR

EGPL 070720Z 00000KT 9999 FEW008CB SCT020 BKN040 05/02 Q1014

Decode

TAF

Not found

Destination Runways

ID Width Length Bearing (true/mag) Surface Threshold Overrun Markings Lighting
06 151 ft / 46 m 6,000 ft / 1,829 m 55.40° / 59.10° ASPHALT 384 ft / 117 m 0 ft / 0 m UK-APP EDGE THRESHOLD MALS
17 151 ft / 46 m 4,218 ft / 1,286 m 167.10° / 170.80° ASPHALT 0 ft / 0 m 0 ft / 0 m UK-APP EDGE THRESHOLD
24 151 ft / 46 m 6,000 ft / 1,829 m 235.42° / 239.13° ASPHALT 0 ft / 0 m 0 ft / 0 m UK-APP EDGE THRESHOLD MALS
35 151 ft / 46 m 4,218 ft / 1,286 m 347.10° / 350.81° ASPHALT 305 ft / 93 m 20 ft / 6 m UK-APP EDGE THRESHOLD

Popular Alternatives